Time;durP1;ratioP1;P1;durP2;ratioP2;P2;SDS_P1;SDS_P2;PMS_P1;PMS_P2;Temp;Humidity;BMP_temperature;BMP_pressure;BME280_temperature;BME280_humidity;BME280_pressure;Samples;Min_cycle;Max_cycle;Signal;HPM_P1;HPM_P2
2021/11/02 00:03:11;;;;;;;0.60;0.60;;;11.60;93.40;;;;;;8255788;28;20236;-76
2021/11/02 00:07:12;;;;;;;1.43;1.17;;;11.60;93.40;;;;;;8272541;28;20607;-77
2021/11/02 00:11:13;;;;;;;0.73;0.70;;;11.70;93.30;;;;;;8255779;28;20285;-76
2021/11/02 00:15:20;;;;;;;0.70;0.70;;;11.70;93.10;;;;;;8269102;28;22049;-76
2021/11/02 00:19:22;;;;;;;1.17;0.70;;;11.70;93.00;;;;;;8262533;28;20504;-76
2021/11/02 00:23:23;;;;;;;0.60;0.60;;;11.70;93.00;;;;;;8285780;28;20474;-76
2021/11/02 00:27:25;;;;;;;1.20;1.10;;;11.70;92.90;;;;;;8278718;28;20449;-76
2021/11/02 00:31:26;;;;;;;1.43;0.80;;;11.70;92.80;;;;;;8284892;28;20221;-76
2021/11/02 00:35:27;;;;;;;0.70;0.70;;;11.70;92.80;;;;;;8276109;28;20450;-76
2021/11/02 00:39:27;;;;;;;3.03;0.87;;;11.80;92.60;;;;;;8270150;28;20180;-77
2021/11/02 00:43:28;;;;;;;2.00;0.77;;;11.80;92.60;;;;;;8265745;28;20354;-76
2021/11/02 00:47:32;;;;;;;2.40;0.60;;;11.80;92.60;;;;;;8279861;28;20180;-76
2021/11/02 00:51:34;;;;;;;1.57;0.70;;;11.80;92.60;;;;;;8258306;28;20659;-76
2021/11/02 00:55:35;;;;;;;0.70;0.70;;;11.80;92.50;;;;;;8265422;28;20444;-76
2021/11/02 00:59:36;;;;;;;2.70;0.77;;;11.70;92.50;;;;;;8277143;28;20468;-77
2021/11/02 01:03:37;;;;;;;0.80;0.80;;;11.70;92.60;;;;;;8273005;28;20496;-76
2021/11/02 01:07:38;;;;;;;1.03;0.77;;;11.70;92.60;;;;;;8286239;28;20621;-76
2021/11/02 01:11:39;;;;;;;3.80;0.80;;;11.70;92.60;;;;;;8284988;28;20784;-76
2021/11/02 01:15:40;;;;;;;3.23;0.70;;;11.80;92.60;;;;;;8261559;28;20462;-77
2021/11/02 01:19:41;;;;;;;0.70;0.53;;;11.70;92.60;;;;;;8266586;28;20444;-76
2021/11/02 01:23:41;;;;;;;0.60;0.60;;;11.60;92.60;;;;;;8283937;28;20224;-76
2021/11/02 01:27:43;;;;;;;1.03;0.70;;;11.60;92.60;;;;;;8277157;28;20631;-77
2021/11/02 01:31:45;;;;;;;0.70;0.70;;;11.60;92.80;;;;;;8266261;28;20188;-76
2021/11/02 01:35:45;;;;;;;1.00;1.00;;;11.60;92.60;;;;;;8266802;28;20885;-76
2021/11/02 01:39:46;;;;;;;3.80;0.70;;;11.50;92.50;;;;;;8284286;28;20432;-76
2021/11/02 01:43:47;;;;;;;1.27;1.10;;;11.50;92.60;;;;;;8264925;28;20216;-77
2021/11/02 01:47:48;;;;;;;0.70;0.60;;;11.50;92.60;;;;;;8275624;28;20273;-76
2021/11/02 01:51:49;;;;;;;0.70;0.70;;;11.50;92.60;;;;;;8277071;28;20195;-77
2021/11/02 01:55:49;;;;;;;0.90;0.60;;;11.50;92.50;;;;;;8263165;28;20239;-76
2021/11/02 01:59:51;;;;;;;2.20;0.70;;;11.50;92.50;;;;;;8282435;28;20451;-76
2021/11/02 02:04:32;;;;;;;3.33;0.77;;;11.50;92.40;;;;;;8283502;28;20232;-77
2021/11/02 02:08:52;;;;;;;0.70;0.70;;;11.50;92.40;;;;;;8241633;28;20444;-76
2021/11/02 02:13:19;;;;;;;0.83;0.70;;;11.50;92.60;;;;;;8259764;28;20584;-76
2021/11/02 02:17:29;;;;;;;2.20;0.67;;;11.50;92.60;;;;;;8257012;28;20447;-77
2021/11/02 02:21:58;;;;;;;0.70;0.60;;;11.50;92.60;;;;;;8277422;28;20792;-76
2021/11/02 02:26:30;;;;;;;0.70;0.70;;;11.40;92.70;;;;;;8273201;28;20617;-76
2021/11/02 02:30:32;;;;;;;1.43;0.70;;;11.20;92.50;;;;;;8281077;28;20937;-77
2021/11/02 02:34:34;;;;;;;3.03;0.77;;;11.10;92.50;;;;;;8278544;28;20476;-76
2021/11/02 02:38:37;;;;;;;9.33;0.80;;;10.90;92.60;;;;;;8263619;28;20514;-76
2021/11/02 02:42:39;;;;;;;0.70;0.70;;;10.80;92.70;;;;;;8257944;28;20474;-76
2021/11/02 02:46:41;;;;;;;0.70;0.60;;;10.70;92.70;;;;;;8259606;28;20617;-76
2021/11/02 02:50:42;;;;;;;0.60;0.60;;;10.60;92.70;;;;;;8263684;28;20439;-77
2021/11/02 02:54:44;;;;;;;0.70;0.70;;;10.50;92.60;;;;;;8263812;28;20451;-77
2021/11/02 02:58:47;;;;;;;1.37;0.70;;;10.40;92.70;;;;;;8260523;28;20443;-77
2021/11/02 03:02:50;;;;;;;1.00;0.87;;;10.30;92.70;;;;;;8269258;28;20478;-78
2021/11/02 03:06:55;;;;;;;0.83;0.70;;;10.20;92.80;;;;;;8274491;28;20470;-77
2021/11/02 03:11:02;;;;;;;0.87;0.57;;;10.10;92.90;;;;;;8250406;28;20444;-77
2021/11/02 03:50:02;;;;;;;0.87;0.80;;;9.70;93.70;;;;;;8280902;28;20439;-77
2021/11/02 03:58:32;;;;;;;2.30;1.00;;;9.60;93.90;;;;;;8287040;28;21113;-77
2021/11/02 04:22:39;;;;;;;2.47;1.00;;;9.60;94.00;;;;;;8276821;28;20470;-76
2021/11/02 05:50:58;;;;;;;0.90;0.90;;;9.50;94.70;;;;;;8289827;28;20431;-78
2021/11/02 05:59:13;;;;;;;1.33;1.07;;;9.60;94.50;;;;;;8284216;28;20952;-78
2021/11/02 06:03:30;;;;;;;1.83;0.90;;;9.60;94.40;;;;;;8268504;28;20286;-78
2021/11/02 06:07:48;;;;;;;0.87;0.87;;;9.60;94.40;;;;;;8263256;28;20432;-74
2021/11/02 06:29:35;;;;;;;9.20;1.03;;;9.40;94.60;;;;;;8282315;28;20439;-74
2021/11/02 06:55:02;;;;;;;2.00;1.70;;;9.40;94.80;;;;;;8283316;28;20457;-75
2021/11/02 07:16:53;;;;;;;4.70;0.97;;;9.50;94.80;;;;;;8287021;28;20950;-77
2021/11/02 07:21:07;;;;;;;4.40;1.30;;;9.60;94.80;;;;;;8287450;28;20442;-76
2021/11/02 08:48:08;;;;;;;4.23;1.70;;;10.30;96.70;;;;;;8281558;28;21991;-78
2021/11/02 08:52:09;;;;;;;6.30;3.00;;;10.30;97.30;;;;;;8275967;28;20443;-77
2021/11/02 08:56:13;;;;;;;2.80;2.60;;;10.30;97.70;;;;;;8287809;28;20216;-77
2021/11/02 09:00:15;;;;;;;2.20;2.00;;;10.30;97.60;;;;;;8295055;28;20319;-76
2021/11/02 09:04:19;;;;;;;2.17;1.97;;;10.50;97.70;;;;;;8272005;28;20521;-77
2021/11/02 09:08:21;;;;;;;2.50;2.27;;;10.50;97.40;;;;;;8289209;28;20424;-77
2021/11/02 09:12:29;;;;;;;2.60;2.40;;;10.60;97.40;;;;;;8271544;28;20617;-77
2021/11/02 09:16:32;;;;;;;3.73;2.37;;;10.70;97.40;;;;;;8291729;28;20443;-78
2021/11/02 09:20:33;;;;;;;4.80;2.40;;;10.70;97.40;;;;;;8294869;28;20438;-77
2021/11/02 09:24:35;;;;;;;2.67;2.47;;;10.70;97.30;;;;;;8289828;28;20467;-77
2021/11/02 09:28:36;;;;;;;6.50;2.47;;;10.70;97.60;;;;;;8275503;28;20761;-77
2021/11/02 09:32:40;;;;;;;1.87;1.77;;;10.70;97.80;;;;;;8286342;28;20439;-76
2021/11/02 09:36:52;;;;;;;1.63;1.53;;;10.60;98.00;;;;;;8287735;28;20435;-76
2021/11/02 09:41:01;;;;;;;1.60;1.50;;;10.70;97.90;;;;;;8288062;28;20439;-76
2021/11/02 09:45:39;;;;;;;4.30;1.90;;;10.70;97.90;;;;;;8284757;28;20989;-78
2021/11/02 09:50:21;;;;;;;6.43;1.50;;;10.70;97.90;;;;;;8287822;28;20785;-75
2021/11/02 09:55:00;;;;;;;2.30;1.37;;;10.70;97.90;;;;;;8266676;28;22960;-76
2021/11/02 09:59:25;;;;;;;2.63;2.20;;;10.60;97.80;;;;;;8292135;28;20448;-77
2021/11/02 10:04:11;;;;;;;6.80;2.83;;;10.70;97.90;;;;;;8284222;28;20514;-76
2021/11/02 10:08:23;;;;;;;2.50;2.17;;;10.70;98.10;;;;;;8269544;28;20460;-75
2021/11/02 10:12:50;;;;;;;4.03;2.57;;;10.90;98.20;;;;;;8279661;28;20868;-75
2021/11/02 10:16:59;;;;;;;4.17;2.73;;;11.10;98.10;;;;;;8277354;28;21049;-75
2021/11/02 10:21:00;;;;;;;2.27;2.07;;;11.20;97.90;;;;;;8285283;28;21141;-76
2021/11/02 10:25:05;;;;;;;3.00;2.80;;;11.30;98.00;;;;;;8270548;28;20463;-75
2021/11/02 10:29:31;;;;;;;3.10;2.80;;;11.50;97.90;;;;;;8267001;28;20567;-76
2021/11/02 10:33:42;;;;;;;2.23;2.10;;;11.70;97.80;;;;;;8281111;28;20451;-74
2021/11/02 10:38:02;;;;;;;2.70;2.50;;;11.70;97.40;;;;;;8281044;28;20931;-75
2021/11/02 10:42:09;;;;;;;4.33;2.23;;;11.80;97.30;;;;;;8264367;28;20801;-74
2021/11/02 10:46:13;;;;;;;11.33;1.93;;;11.80;97.30;;;;;;8282187;28;20798;-74
2021/11/02 10:50:15;;;;;;;5.53;2.43;;;11.80;97.10;;;;;;8283489;28;20442;-73
2021/11/02 10:54:59;;;;;;;3.00;2.80;;;11.80;96.70;;;;;;8286673;28;20444;-74
2021/11/02 10:59:02;;;;;;;5.03;1.80;;;11.90;96.90;;;;;;8269688;28;20588;-74
2021/11/02 11:03:08;;;;;;;3.53;3.30;;;12.00;97.00;;;;;;8285267;28;20477;-75
2021/11/02 11:07:09;;;;;;;3.30;1.80;;;12.00;96.90;;;;;;8285632;28;21324;-74
2021/11/02 11:11:17;;;;;;;5.90;3.33;;;12.20;96.90;;;;;;8281626;28;20802;-74
2021/11/02 11:15:19;;;;;;;1.90;1.80;;;12.30;96.50;;;;;;8285093;28;20454;-75
2021/11/02 11:19:29;;;;;;;4.20;1.10;;;12.50;96.20;;;;;;8286346;28;20436;-74
2021/11/02 11:23:35;;;;;;;1.60;1.13;;;12.60;95.80;;;;;;8273200;28;20571;-75
2021/11/02 11:27:43;;;;;;;1.20;1.07;;;12.70;95.50;;;;;;8271691;28;20474;-76
2021/11/02 11:31:44;;;;;;;1.53;1.43;;;12.60;95.10;;;;;;8270255;28;20492;-75
2021/11/02 11:35:46;;;;;;;2.47;1.87;;;12.60;95.20;;;;;;8284775;28;20441;-75
2021/11/02 11:39:49;;;;;;;0.97;0.97;;;12.50;95.20;;;;;;8282655;28;20434;-75
2021/11/02 11:43:52;;;;;;;4.20;1.53;;;12.50;95.30;;;;;;8279073;28;21040;-75
2021/11/02 11:48:26;;;;;;;1.40;1.30;;;12.40;95.40;;;;;;8277981;28;21099;-75
2021/11/02 11:52:27;;;;;;;2.47;1.60;;;12.40;95.40;;;;;;8275281;28;20899;-76
2021/11/02 11:56:33;;;;;;;1.20;1.10;;;12.30;95.40;;;;;;8277274;28;20442;-75
2021/11/02 12:00:45;;;;;;;2.60;2.10;;;12.40;96.00;;;;;;8277767;28;20640;-75
2021/11/02 12:04:53;;;;;;;4.63;2.20;;;12.40;95.90;;;;;;8280860;28;20493;-75
2021/11/02 12:09:14;;;;;;;1.67;1.57;;;12.30;96.50;;;;;;8278068;28;20441;-76
2021/11/02 12:13:16;;;;;;;2.50;2.07;;;12.20;96.70;;;;;;8281846;28;20455;-76
2021/11/02 12:17:18;;;;;;;27.67;11.13;;;12.10;97.30;;;;;;8277351;28;20442;-76
2021/11/02 12:21:20;;;;;;;24.30;10.10;;;12.00;97.40;;;;;;8286872;28;20508;-76
2021/11/02 12:25:26;;;;;;;14.00;7.37;;;11.90;97.70;;;;;;8287836;28;20824;-76
2021/11/02 12:29:28;;;;;;;8.87;5.37;;;11.80;98.10;;;;;;8289310;28;20439;-77
2021/11/02 12:33:29;;;;;;;8.93;5.77;;;11.70;98.40;;;;;;8258324;28;20972;-77
2021/11/02 12:37:30;;;;;;;10.40;6.50;;;11.60;98.80;;;;;;8279438;28;20443;-78
2021/11/02 12:41:31;;;;;;;8.00;6.10;;;11.50;99.10;;;;;;8256735;28;20479;-75
2021/11/02 12:45:40;;;;;;;16.60;11.13;;;11.50;99.40;;;;;;8279362;28;20239;-78
2021/11/02 12:49:55;;;;;;;6.13;4.53;;;11.50;99.70;;;;;;8278627;28;20268;-76
2021/11/02 12:53:58;;;;;;;15.30;9.60;;;11.60;99.90;;;;;;8273954;28;20830;-77
2021/11/02 12:58:20;;;;;;;9.57;5.53;;;11.60;99.90;;;;;;8278462;28;20439;-77
2021/11/02 13:02:34;;;;;;;5.40;3.47;;;11.70;99.90;;;;;;8254631;28;20678;-77
2021/11/02 13:06:52;;;;;;;4.23;3.03;;;11.80;99.90;;;;;;8273774;28;20465;-76
2021/11/02 13:10:53;;;;;;;2.10;1.87;;;11.80;99.90;;;;;;8283556;28;20448;-77
2021/11/02 13:15:01;;;;;;;3.17;2.70;;;11.90;99.90;;;;;;8279146;28;20444;-77
2021/11/02 13:19:15;;;;;;;7.53;4.67;;;12.00;99.80;;;;;;8284346;28;20243;-76
2021/11/02 13:23:15;;;;;;;3.87;3.57;;;11.90;99.90;;;;;;3522530;28;10002073;-77
2021/11/02 13:27:16;;;;;;;2.20;2.10;;;11.90;99.90;;;;;;8283926;28;20207;-77
2021/11/02 13:31:31;;;;;;;0.80;0.80;;;11.90;99.90;;;;;;8279211;28;20185;-80
2021/11/02 13:35:52;;;;;;;1.50;1.40;;;11.90;99.70;;;;;;8260123;28;20208;-77
2021/11/02 13:40:00;;;;;;;1.07;0.83;;;12.00;99.70;;;;;;8274786;28;20564;-79
2021/11/02 13:44:10;;;;;;;1.20;1.10;;;12.00;99.70;;;;;;8281951;28;20476;-80
2021/11/02 13:48:11;;;;;;;2.13;1.30;;;12.00;99.60;;;;;;8260781;28;20457;-78
2021/11/02 13:52:13;;;;;;;3.50;1.63;;;12.00;99.70;;;;;;8276822;28;20446;-78
2021/11/02 13:56:19;;;;;;;2.00;1.80;;;12.00;99.80;;;;;;8277308;28;20189;-78
2021/11/02 14:00:20;;;;;;;3.40;2.40;;;12.10;99.90;;;;;;8274214;28;20455;-76
2021/11/02 14:04:37;;;;;;;2.87;2.17;;;12.00;99.90;;;;;;8278988;28;20497;-77
2021/11/02 14:08:39;;;;;;;2.77;2.57;;;11.90;99.90;;;;;;8281773;28;20736;-76
2021/11/02 14:12:54;;;;;;;3.53;2.53;;;11.90;99.90;;;;;;8281361;28;20457;-77
2021/11/02 14:16:55;;;;;;;2.87;2.00;;;11.90;99.90;;;;;;8260897;28;21050;-78
2021/11/02 14:20:56;;;;;;;1.20;1.10;;;12.10;99.90;;;;;;8273610;28;20974;-77
2021/11/02 14:25:12;;;;;;;1.00;1.00;;;12.30;99.90;;;;;;8275565;28;20473;-77
2021/11/02 14:29:14;;;;;;;0.73;0.73;;;12.70;99.90;;;;;;8261612;28;20305;-75
2021/11/02 14:33:19;;;;;;;0.77;0.70;;;13.10;99.70;;;;;;8270128;28;20471;-76
2021/11/02 14:37:21;;;;;;;0.90;0.80;;;13.30;98.50;;;;;;8251417;28;20934;-77
2021/11/02 14:41:32;;;;;;;0.80;0.80;;;13.40;97.80;;;;;;8249596;28;21103;-77
2021/11/02 14:45:42;;;;;;;0.50;0.50;;;13.40;96.40;;;;;;8262952;28;20478;-77
2021/11/02 14:49:42;;;;;;;0.63;0.63;;;13.40;96.40;;;;;;8277720;28;20864;-76
2021/11/02 14:53:48;;;;;;;0.80;0.77;;;13.20;95.80;;;;;;8284935;28;20465;-75
2021/11/02 14:57:52;;;;;;;0.70;0.70;;;13.00;95.90;;;;;;8281096;28;20205;-79
2021/11/02 15:02:04;;;;;;;4.10;0.60;;;12.80;96.40;;;;;;8286764;28;20445;-77
2021/11/02 15:06:11;;;;;;;0.70;0.70;;;12.70;96.50;;;;;;8285916;28;20482;-75
2021/11/02 15:10:15;;;;;;;1.00;0.73;;;12.50;96.80;;;;;;8286053;28;20449;-75
2021/11/02 15:14:28;;;;;;;10.13;0.70;;;12.40;97.00;;;;;;8284817;28;20453;-76
2021/11/02 15:18:41;;;;;;;0.93;0.90;;;12.40;97.30;;;;;;8263496;28;20538;-77
2021/11/02 15:22:42;;;;;;;1.43;1.33;;;12.30;97.80;;;;;;8265227;28;20758;-77
2021/11/02 15:26:50;;;;;;;1.00;0.90;;;12.30;98.20;;;;;;8280693;28;20455;-76
2021/11/02 15:31:02;;;;;;;2.03;0.93;;;12.30;98.30;;;;;;8281265;28;21328;-77
2021/11/02 15:35:06;;;;;;;2.17;1.10;;;12.30;98.00;;;;;;8259375;28;20445;-76
2021/11/02 15:39:08;;;;;;;3.83;1.07;;;12.30;98.00;;;;;;8277387;28;20452;-76
2021/11/02 15:43:12;;;;;;;1.27;1.07;;;12.20;98.10;;;;;;8280526;28;21177;-76
2021/11/02 15:47:17;;;;;;;0.87;0.87;;;12.10;98.10;;;;;;8259566;28;20441;-76
2021/11/02 15:51:18;;;;;;;1.10;1.00;;;12.00;98.30;;;;;;8265562;28;20440;-77
2021/11/02 15:55:21;;;;;;;0.97;0.97;;;11.80;98.50;;;;;;8284852;28;20447;-75
2021/11/02 15:59:24;;;;;;;1.33;1.23;;;11.70;98.70;;;;;;8268180;28;20185;-76
2021/11/02 16:03:35;;;;;;;3.00;2.30;;;11.60;99.00;;;;;;8276801;28;20501;-77
2021/11/02 16:07:36;;;;;;;1.10;1.10;;;11.60;99.10;;;;;;8275355;28;20526;-77
2021/11/02 16:11:37;;;;;;;1.03;1.00;;;11.50;99.30;;;;;;8252792;28;20989;-75
2021/11/02 16:15:40;;;;;;;1.00;0.90;;;11.50;99.30;;;;;;8287099;28;20444;-76
2021/11/02 16:19:41;;;;;;;0.80;0.70;;;11.50;99.20;;;;;;8286237;28;20574;-76
2021/11/02 16:23:47;;;;;;;0.70;0.70;;;11.30;98.80;;;;;;8268096;28;20470;-77
2021/11/02 16:28:00;;;;;;;0.70;0.70;;;11.20;99.00;;;;;;8268214;28;20447;-77
2021/11/02 16:32:18;;;;;;;0.80;0.80;;;11.30;99.50;;;;;;8263787;28;20451;-75
2021/11/02 16:36:27;;;;;;;0.80;0.80;;;11.20;99.50;;;;;;8275815;28;20456;-76
2021/11/02 16:40:28;;;;;;;1.20;1.10;;;11.20;99.50;;;;;;8280600;28;20454;-77
2021/11/02 16:44:32;;;;;;;1.43;0.93;;;11.10;99.60;;;;;;8259031;28;20462;-76
2021/11/02 16:48:43;;;;;;;1.73;1.60;;;11.10;99.60;;;;;;8280633;28;20184;-77
2021/11/02 16:52:44;;;;;;;4.80;2.23;;;11.10;99.60;;;;;;8262777;28;20444;-76
2021/11/02 16:57:08;;;;;;;3.00;2.23;;;11.10;99.70;;;;;;8267048;28;20817;-77
2021/11/02 17:01:13;;;;;;;1.30;1.20;;;11.00;99.60;;;;;;8265933;28;20292;-78
2021/11/02 17:05:26;;;;;;;0.77;0.77;;;10.90;99.20;;;;;;8282891;28;20559;-77
2021/11/02 17:09:30;;;;;;;4.70;0.90;;;10.80;98.80;;;;;;8275033;28;20550;-78
2021/11/02 17:13:35;;;;;;;0.80;0.80;;;10.70;98.60;;;;;;8269360;28;21274;-77
2021/11/02 17:17:41;;;;;;;1.07;0.70;;;10.70;98.60;;;;;;8282810;28;21041;-78
2021/11/02 17:21:46;;;;;;;0.80;0.80;;;10.70;98.80;;;;;;8267184;28;20448;-77
2021/11/02 17:25:47;;;;;;;1.00;0.87;;;10.60;98.70;;;;;;8264144;28;20582;-79
2021/11/02 17:29:48;;;;;;;2.80;1.23;;;10.50;98.40;;;;;;8281668;28;20447;-78
2021/11/02 17:33:49;;;;;;;2.70;1.03;;;10.50;98.50;;;;;;8282692;28;20869;-78
2021/11/02 17:37:52;;;;;;;1.60;1.43;;;10.50;98.40;;;;;;8281862;28;21013;-78
2021/11/02 17:41:53;;;;;;;2.30;1.23;;;10.40;98.30;;;;;;8278892;28;20455;-78
2021/11/02 17:45:54;;;;;;;2.70;2.03;;;10.30;98.30;;;;;;8284637;28;20503;-78
2021/11/02 17:49:55;;;;;;;3.73;1.70;;;10.30;98.30;;;;;;8268651;28;20529;-78
2021/11/02 17:53:55;;;;;;;2.07;1.50;;;10.30;98.40;;;;;;8285989;28;20439;-78
2021/11/02 17:58:00;;;;;;;4.60;1.93;;;10.30;98.40;;;;;;8263952;28;20711;-78
2021/11/02 18:02:05;;;;;;;1.13;1.03;;;10.30;98.40;;;;;;8263231;28;20636;-77
2021/11/02 18:06:08;;;;;;;1.83;1.40;;;10.30;98.40;;;;;;8282871;28;20522;-78
2021/11/02 18:10:10;;;;;;;2.57;0.90;;;10.20;98.30;;;;;;8275700;28;20498;-78
2021/11/02 18:14:11;;;;;;;3.33;1.30;;;10.20;98.20;;;;;;8284866;28;20454;-78
2021/11/02 18:18:15;;;;;;;2.73;1.40;;;10.20;98.10;;;;;;8263991;28;21046;-77
2021/11/02 18:22:16;;;;;;;1.30;1.20;;;10.20;98.30;;;;;;8284026;28;20521;-78
2021/11/02 18:26:20;;;;;;;1.73;1.00;;;10.20;98.20;;;;;;8265801;28;20892;-78
2021/11/02 18:30:22;;;;;;;1.00;0.83;;;10.10;98.00;;;;;;8273148;28;20440;-78
2021/11/02 18:34:25;;;;;;;1.57;1.47;;;10.00;97.80;;;;;;8289945;28;20502;-78
2021/11/02 18:38:30;;;;;;;0.80;0.70;;;10.00;97.80;;;;;;8275534;28;20570;-76
2021/11/02 18:42:31;;;;;;;5.40;1.47;;;9.90;97.70;;;;;;8267234;28;20454;-77
2021/11/02 18:46:32;;;;;;;0.70;0.70;;;9.80;97.70;;;;;;8275632;28;20474;-76
2021/11/02 18:50:33;;;;;;;2.37;0.97;;;9.70;97.80;;;;;;8287306;28;20211;-75
2021/11/02 18:54:35;;;;;;;1.37;1.27;;;9.60;98.00;;;;;;8282417;28;20184;-77
2021/11/02 18:58:38;;;;;;;1.20;1.10;;;9.40;98.00;;;;;;8273185;28;20478;-76
2021/11/02 19:02:39;;;;;;;1.40;1.30;;;9.40;98.10;;;;;;8240069;28;20451;-76
2021/11/02 19:06:42;;;;;;;1.27;1.20;;;9.30;98.20;;;;;;8279263;28;20885;-76
2021/11/02 19:10:50;;;;;;;1.93;1.70;;;9.20;98.30;;;;;;8258440;28;20484;-77
2021/11/02 19:14:52;;;;;;;1.47;1.30;;;9.10;98.50;;;;;;8271322;28;20534;-76
2021/11/02 19:18:52;;;;;;;9.40;1.33;;;9.10;98.50;;;;;;8264992;28;20453;-75
2021/11/02 19:22:53;;;;;;;3.27;2.10;;;9.10;98.40;;;;;;8267023;28;20446;-75
2021/11/02 19:26:54;;;;;;;1.83;1.60;;;9.00;98.30;;;;;;8252061;28;20200;-77
2021/11/02 19:30:55;;;;;;;1.33;1.23;;;8.90;98.30;;;;;;8271328;28;20436;-76
2021/11/02 19:34:56;;;;;;;3.07;2.33;;;8.80;98.10;;;;;;8263735;28;20445;-77
2021/11/02 19:38:58;;;;;;;2.33;1.30;;;8.80;98.00;;;;;;8286657;28;20442;-77
2021/11/02 19:42:58;;;;;;;2.13;1.50;;;8.70;97.80;;;;;;8281401;28;20245;-76
2021/11/02 19:47:01;;;;;;;1.87;1.77;;;8.70;97.70;;;;;;8276972;28;20472;-77
2021/11/02 19:51:01;;;;;;;1.60;1.50;;;8.70;97.60;;;;;;8287348;28;20193;-76
2021/11/02 19:55:02;;;;;;;1.70;1.40;;;8.70;97.50;;;;;;8269833;28;20489;-76
2021/11/02 19:59:03;;;;;;;4.73;1.97;;;8.70;97.50;;;;;;8270225;28;20178;-76
2021/11/02 20:03:03;;;;;;;4.40;1.87;;;8.60;97.40;;;;;;8282442;28;20590;-76
2021/11/02 20:07:16;;;;;;;3.00;1.97;;;8.60;97.40;;;;;;8281794;28;20888;-77
2021/11/02 20:11:23;;;;;;;2.27;2.03;;;8.60;97.60;;;;;;8260917;28;20187;-76
2021/11/02 20:15:24;;;;;;;2.40;2.13;;;8.50;97.70;;;;;;8276387;28;20497;-75
2021/11/02 20:19:31;;;;;;;3.30;2.93;;;8.40;97.70;;;;;;8280685;28;20443;-76
2021/11/02 20:23:33;;;;;;;4.37;3.30;;;8.30;97.70;;;;;;8283334;28;20493;-78
2021/11/02 20:27:34;;;;;;;5.80;4.20;;;8.20;98.00;;;;;;8267839;28;20443;-77
2021/11/02 20:31:34;;;;;;;5.23;3.13;;;8.10;98.20;;;;;;8283438;28;20455;-77
2021/11/02 20:35:35;;;;;;;8.30;3.47;;;7.90;98.50;;;;;;8274613;28;20652;-78
2021/11/02 20:39:43;;;;;;;4.00;2.73;;;7.80;98.70;;;;;;8287158;28;20278;-78
2021/11/02 20:44:08;;;;;;;4.70;2.73;;;7.70;98.90;;;;;;8285479;28;20210;-78
2021/11/02 20:48:17;;;;;;;3.20;2.93;;;7.70;99.00;;;;;;8268892;28;22165;-77
2021/11/02 20:52:19;;;;;;;3.00;1.93;;;7.70;99.00;;;;;;8270779;28;20946;-78
2021/11/02 20:56:23;;;;;;;1.97;1.87;;;7.60;98.90;;;;;;8271392;28;20481;-77
2021/11/02 21:00:23;;;;;;;1.83;1.73;;;7.60;99.00;;;;;;8269100;28;20667;-78
2021/11/02 21:04:25;;;;;;;2.77;2.57;;;7.60;99.20;;;;;;8280232;28;21192;-77
2021/11/02 21:08:51;;;;;;;1.60;1.50;;;7.60;99.20;;;;;;8280654;28;20184;-76
2021/11/02 21:12:56;;;;;;;4.00;2.03;;;7.60;99.30;;;;;;8285964;28;20476;-76
2021/11/02 21:17:00;;;;;;;2.17;1.83;;;7.60;99.40;;;;;;8284270;28;20446;-75
2021/11/02 21:21:03;;;;;;;3.10;2.03;;;7.70;99.30;;;;;;8286924;28;20430;-77
2021/11/02 21:25:06;;;;;;;3.30;2.17;;;7.70;99.40;;;;;;8284333;28;20485;-76
2021/11/02 21:29:09;;;;;;;3.60;1.93;;;7.70;99.40;;;;;;8290764;28;21427;-77
2021/11/02 21:33:11;;;;;;;2.80;2.10;;;7.60;99.30;;;;;;8285095;28;20445;-78
2021/11/02 21:37:14;;;;;;;2.07;1.87;;;7.60;99.30;;;;;;8267680;28;20486;-76
2021/11/02 21:41:55;;;;;;;2.40;2.20;;;7.60;99.50;;;;;;8280708;28;20543;-78
2021/11/02 21:45:58;;;;;;;2.60;2.10;;;7.60;99.40;;;;;;8284866;28;20508;-78
2021/11/02 21:50:20;;;;;;;2.53;2.33;;;7.50;99.30;;;;;;8263634;28;20812;-77
2021/11/02 21:54:24;;;;;;;2.50;2.30;;;7.50;99.30;;;;;;8290358;28;20485;-77
2021/11/02 21:58:46;;;;;;;1.70;1.60;;;7.40;99.50;;;;;;8272040;28;21075;-78
2021/11/02 22:02:48;;;;;;;3.07;2.03;;;7.40;99.80;;;;;;8284540;28;20543;-77
2021/11/02 22:06:53;;;;;;;3.40;3.10;;;7.40;99.90;;;;;;8267362;28;20980;-77
2021/11/02 22:10:54;;;;;;;4.03;2.50;;;7.50;99.90;;;;;;8270354;28;20445;-76
2021/11/02 22:14:55;;;;;;;3.83;2.87;;;7.60;99.90;;;;;;8268923;28;20972;-77
2021/11/02 22:18:56;;;;;;;11.03;2.80;;;7.60;99.90;;;;;;8273292;28;20242;-76
2021/11/02 22:22:57;;;;;;;2.40;2.20;;;7.70;99.90;;;;;;8288416;28;20681;-77
2021/11/02 22:26:59;;;;;;;3.23;2.50;;;7.80;99.90;;;;;;8271265;28;20451;-75
2021/11/02 22:31:00;;;;;;;2.17;2.07;;;7.80;99.80;;;;;;8271482;28;20450;-78
2021/11/02 22:35:03;;;;;;;2.57;2.07;;;7.80;99.70;;;;;;8271140;28;20453;-76
2021/11/02 22:39:04;;;;;;;2.97;2.77;;;7.80;99.50;;;;;;8289521;28;20448;-76
2021/11/02 22:43:06;;;;;;;2.37;2.13;;;7.80;99.60;;;;;;8292053;28;20941;-76
2021/11/02 22:47:08;;;;;;;3.00;2.57;;;7.70;99.20;;;;;;8273117;28;20204;-76
2021/11/02 22:51:09;;;;;;;2.80;2.10;;;7.50;99.20;;;;;;8267371;28;20527;-77
2021/11/02 22:55:14;;;;;;;5.37;3.63;;;7.50;99.50;;;;;;8287639;28;20452;-77
2021/11/02 22:59:15;;;;;;;3.57;2.10;;;7.50;99.70;;;;;;8262524;28;20803;-77
2021/11/02 23:03:19;;;;;;;5.20;3.40;;;7.50;99.70;;;;;;8265799;28;20577;-77
2021/11/02 23:07:21;;;;;;;8.07;2.90;;;7.50;99.60;;;;;;8277918;28;20432;-77
2021/11/02 23:11:22;;;;;;;3.90;3.33;;;7.50;99.60;;;;;;8262064;28;20453;-77
2021/11/02 23:15:25;;;;;;;11.83;4.27;;;7.50;99.60;;;;;;8283163;28;20448;-78
2021/11/02 23:19:31;;;;;;;5.77;3.27;;;7.50;99.90;;;;;;8265224;28;20811;-77
2021/11/02 23:23:45;;;;;;;6.43;2.60;;;7.60;99.90;;;;;;8269771;28;20476;-77
2021/11/02 23:27:48;;;;;;;5.07;3.67;;;7.70;99.90;;;;;;8280680;28;20444;-78
2021/11/02 23:31:51;;;;;;;4.23;3.57;;;7.70;99.90;;;;;;8284095;28;20447;-77
2021/11/02 23:35:54;;;;;;;4.97;3.87;;;7.80;99.90;;;;;;8281926;28;20460;-77
2021/11/02 23:39:58;;;;;;;4.30;3.50;;;7.80;99.90;;;;;;8268810;28;20496;-78
2021/11/02 23:43:58;;;;;;;5.47;4.67;;;7.80;99.90;;;;;;8264477;28;20565;-78
2021/11/02 23:48:00;;;;;;;6.37;3.90;;;7.90;99.90;;;;;;8255771;28;20472;-77
2021/11/02 23:52:01;;;;;;;5.97;3.67;;;7.90;99.90;;;;;;8257600;28;20282;-77
2021/11/02 23:56:02;;;;;;;3.97;3.33;;;7.90;99.90;;;;;;8274240;28;20527;-77
